createdAt,value
2022-08-18T00:01:40.638Z,97.50
2022-08-18T00:04:22.833Z,94.13
2022-08-18T00:06:56.683Z,89.45
2022-08-18T00:09:23.347Z,99.88
2022-08-18T00:11:50.028Z,101.57
2022-08-18T00:14:21.582Z,97.60
2022-08-18T00:16:54.022Z,103.43
2022-08-18T00:19:45.656Z,95.07
2022-08-18T00:22:14.808Z,93.72
2022-08-18T00:24:47.874Z,93.60
2022-08-18T00:27:29.803Z,98.63
2022-08-18T00:30:02.145Z,94.35
2022-08-18T00:32:33.523Z,100.25
2022-08-18T00:35:07.313Z,97.30
2022-08-18T00:37:34.473Z,102.88
2022-08-18T00:40:01.178Z,107.03
2022-08-18T00:42:30.596Z,108.78
2022-08-18T00:45:06.108Z,113.43
2022-08-18T00:47:42.387Z,109.07
2022-08-18T00:50:16.716Z,115.38
2022-08-18T00:52:53.656Z,117.43
2022-08-18T00:55:22.331Z,123.00
2022-08-18T00:57:52.789Z,122.43
2022-08-18T01:00:19.697Z,125.10
2022-08-18T01:02:51.601Z,126.03
2022-08-18T01:05:26.335Z,125.18
2022-08-18T01:07:53.728Z,123.18
2022-08-18T01:10:23.648Z,119.10
2022-08-18T01:12:53.764Z,90.78
2022-08-18T01:15:28.901Z,97.90
2022-08-18T01:18:23.687Z,106.35
2022-08-18T01:21:24.283Z,110.95
2022-08-18T01:23:53.429Z,119.22
2022-08-18T01:26:23.143Z,124.65
2022-08-18T01:28:50.544Z,131.38
2022-08-18T01:31:56.064Z,141.60
2022-08-18T01:34:26.382Z,134.23
2022-08-18T01:36:54.842Z,131.45
2022-08-18T01:41:24.377Z,134.35
2022-08-18T01:42:10.399Z,125.72
2022-08-18T01:44:37.585Z,120.63
2022-08-18T01:47:04.343Z,116.18
2022-08-18T01:49:31.021Z,111.93
2022-08-18T01:51:57.870Z,113.28
2022-08-18T01:54:28.153Z,112.90
2022-08-18T01:56:56.863Z,129.90
2022-08-18T01:59:23.878Z,130.85
2022-08-18T02:01:55.584Z,135.10
2022-08-18T02:04:36.965Z,134.00
2022-08-18T02:07:07.720Z,149.68
2022-08-18T02:09:36.459Z,156.35
2022-08-18T02:12:05.836Z,153.80
2022-08-18T02:14:33.106Z,164.98
2022-08-18T02:17:02.326Z,154.40
2022-08-18T02:19:34.548Z,159.07
2022-08-18T02:22:01.867Z,156.23
2022-08-18T02:24:28.549Z,149.98
2022-08-18T02:26:55.317Z,165.65
2022-08-18T02:29:21.995Z,168.45
2022-08-18T02:31:49.123Z,177.45
2022-08-18T02:34:17.296Z,165.35
2022-08-18T02:36:44.276Z,155.95
2022-08-18T02:39:11.496Z,154.40
2022-08-18T02:41:38.329Z,165.23
2022-08-18T02:44:07.630Z,163.70
2022-08-18T02:46:35.579Z,158.07
2022-08-18T02:49:02.922Z,157.38
2022-08-18T02:51:29.915Z,151.98
2022-08-18T02:53:59.169Z,153.63
2022-08-18T02:56:40.059Z,156.20
2022-08-18T02:59:12.924Z,143.52
2022-08-18T03:01:43.348Z,154.95
2022-08-18T03:04:14.156Z,163.05
2022-08-18T03:06:41.243Z,153.35
2022-08-18T03:09:09.656Z,152.13
2022-08-18T03:11:37.150Z,161.00
2022-08-18T03:14:11.099Z,157.05
2022-08-18T03:16:53.268Z,150.25
2022-08-18T03:19:29.403Z,153.20
2022-08-18T03:21:59.368Z,150.93
2022-08-18T03:24:31.386Z,142.63
2022-08-18T03:26:59.150Z,145.93
2022-08-18T03:29:31.658Z,146.65
2022-08-18T03:32:01.109Z,144.90
2022-08-18T03:34:28.170Z,150.73
2022-08-18T03:36:54.923Z,149.70
2022-08-18T03:39:23.655Z,154.15
2022-08-18T03:41:59.233Z,149.00
2022-08-18T03:44:33.245Z,147.43
2022-08-18T03:47:03.700Z,148.35
2022-08-18T03:49:33.383Z,156.25
2022-08-18T03:52:00.831Z,152.35
2022-08-18T03:54:31.937Z,159.90
2022-08-18T03:57:00.060Z,153.27
2022-08-18T03:59:27.737Z,156.70
2022-08-18T04:01:55.489Z,156.40
2022-08-18T04:04:25.372Z,155.93
2022-08-18T04:06:56.944Z,162.60
2022-08-18T04:09:25.470Z,157.15
2022-08-18T04:11:52.858Z,153.88
2022-08-18T04:14:23.947Z,158.13
2022-08-18T04:16:50.764Z,156.43
2022-08-18T04:19:25.232Z,157.68
2022-08-18T04:21:57.336Z,147.93
2022-08-18T04:24:26.566Z,148.38
2022-08-18T04:26:56.232Z,153.95
2022-08-18T04:29:23.496Z,151.00
2022-08-18T04:31:51.469Z,156.30
2022-08-18T04:34:20.453Z,157.30
2022-08-18T04:36:48.557Z,159.68
2022-08-18T04:39:15.569Z,168.70
2022-08-18T04:41:44.207Z,164.32
2022-08-18T04:44:12.618Z,172.50
2022-08-18T04:46:54.689Z,172.43
2022-08-18T04:49:25.524Z,169.30
2022-08-18T04:52:39.394Z,182.48
2022-08-18T04:55:00.909Z,176.50
2022-08-18T04:57:28.897Z,177.02
2022-08-18T04:59:59.854Z,173.32
2022-08-18T05:02:26.627Z,164.10
2022-08-18T05:04:53.357Z,171.40
2022-08-18T05:07:25.684Z,163.73
2022-08-18T05:09:54.991Z,177.40
2022-08-18T05:12:25.760Z,172.40
2022-08-18T05:14:53.845Z,164.70
2022-08-18T05:17:20.839Z,175.93
2022-08-18T05:19:47.718Z,174.30
2022-08-18T05:22:19.548Z,174.18
2022-08-18T05:24:55.673Z,169.70
2022-08-18T05:27:22.425Z,172.35
2022-08-18T05:29:51.612Z,166.43
2022-08-18T05:32:41.806Z,166.25
2022-08-18T05:35:12.183Z,157.23
2022-08-18T05:38:19.278Z,149.68
2022-08-18T05:40:56.063Z,142.55
2022-08-18T05:43:22.821Z,144.90
2022-08-18T05:45:51.646Z,149.68
2022-08-18T05:48:18.974Z,141.27
2022-08-18T05:50:45.884Z,144.50
2022-08-18T05:53:14.983Z,146.93
2022-08-18T05:56:23.573Z,139.23
2022-08-18T05:58:55.598Z,135.68
2022-08-18T06:01:27.867Z,137.13
2022-08-18T06:04:21.250Z,139.88
2022-08-18T06:06:49.490Z,144.13
2022-08-18T06:09:37.861Z,143.65
2022-08-18T06:12:17.770Z,149.57
2022-08-18T06:14:44.709Z,152.25
2022-08-18T06:17:41.861Z,143.57
2022-08-18T06:21:05.457Z,139.85
2022-08-18T06:23:36.224Z,134.05
2022-08-18T06:26:05.850Z,140.48
2022-08-18T06:28:52.432Z,140.55
2022-08-18T06:31:52.939Z,130.48
2022-08-18T06:34:54.630Z,141.65
2022-08-18T06:38:07.244Z,131.90
2022-08-18T06:40:34.031Z,131.52
2022-08-18T06:43:02.260Z,122.72
2022-08-18T06:45:40.097Z,125.72
2022-08-18T06:48:17.306Z,121.97
2022-08-18T06:50:51.997Z,124.50
2022-08-18T06:53:28.057Z,123.82
2022-08-18T06:55:55.976Z,126.25
2022-08-18T06:58:32.330Z,123.78
2022-08-18T07:01:06.937Z,126.25
2022-08-18T07:03:36.710Z,123.05
2022-08-18T07:06:06.624Z,117.20
2022-08-18T07:08:36.237Z,108.53
2022-08-18T07:11:29.477Z,110.53
2022-08-18T07:14:17.057Z,99.60
2022-08-18T07:17:00.779Z,99.80
2022-08-18T07:19:31.899Z,102.85
2022-08-18T07:22:07.234Z,106.75
2022-08-18T07:24:46.732Z,108.50
2022-08-18T07:27:17.474Z,113.85
2022-08-18T07:30:09.606Z,119.28
2022-08-18T07:33:02.153Z,116.32
2022-08-18T07:35:52.248Z,109.30
2022-08-18T07:38:45.251Z,104.35
2022-08-18T07:41:20.320Z,97.38
2022-08-18T07:43:53.843Z,100.72
2022-08-18T07:46:44.777Z,100.03
2022-08-18T07:49:22.230Z,103.63
2022-08-18T07:51:58.994Z,106.70
2022-08-18T07:54:49.293Z,107.95
2022-08-18T07:57:42.077Z,110.38
2022-08-18T08:03:45.175Z,98.38
2022-08-18T08:06:25.273Z,102.57
2022-08-18T08:09:51.801Z,94.95
2022-08-18T08:12:36.951Z,90.65
2022-08-18T08:15:42.231Z,91.25
2022-08-18T08:18:25.192Z,94.07
2022-08-18T08:21:00.346Z,87.38
2022-08-18T08:23:47.739Z,91.90
2022-08-18T08:26:35.483Z,93.13
2022-08-18T08:29:02.219Z,95.78
2022-08-18T08:31:39.140Z,92.10
2022-08-18T08:34:25.126Z,91.95
2022-08-18T08:37:00.883Z,92.30
2022-08-18T08:39:51.266Z,90.88
2022-08-18T08:42:30.919Z,86.03
2022-08-18T08:45:10.931Z,83.80
2022-08-18T08:47:50.907Z,82.20
2022-08-18T08:50:26.189Z,82.55
2022-08-18T08:53:02.012Z,79.78
2022-08-18T08:55:33.989Z,76.13
2022-08-18T08:58:26.540Z,78.60
2022-08-18T09:00:55.518Z,75.05
2022-08-18T09:03:37.278Z,76.70
2022-08-18T09:06:47.636Z,78.03
2022-08-18T09:09:45.017Z,77.70
2022-08-18T09:12:46.860Z,77.57
2022-08-18T09:15:35.862Z,74.93
2022-08-18T09:18:24.469Z,73.43
2022-08-18T09:21:18.201Z,77.60
2022-08-18T09:23:50.788Z,73.20
2022-08-18T09:26:55.070Z,74.78
2022-08-18T09:29:44.887Z,77.45
2022-08-18T09:32:22.670Z,74.55
2022-08-18T09:35:42.284Z,71.50
2022-08-18T09:38:45.238Z,74.60
2022-08-18T09:41:33.955Z,73.50
2022-08-18T09:47:02.040Z,74.63
2022-08-18T09:49:29.317Z,73.82
2022-08-18T09:50:38.147Z,77.93
2022-08-18T09:52:26.237Z,75.78
2022-08-18T09:54:59.102Z,74.70
2022-08-18T09:57:31.609Z,75.65
2022-08-18T10:00:12.347Z,71.63
2022-08-18T10:02:40.241Z,75.63
2022-08-18T10:05:15.839Z,76.57
2022-08-18T10:08:07.208Z,77.70
2022-08-18T10:11:08.991Z,76.15
2022-08-18T10:13:58.446Z,78.47
2022-08-18T10:17:16.022Z,76.35
2022-08-18T10:20:02.178Z,78.35
2022-08-18T10:22:48.422Z,76.57
2022-08-18T10:25:32.649Z,77.28
2022-08-18T10:27:59.529Z,78.13
2022-08-18T10:30:30.520Z,78.10
2022-08-18T10:33:17.287Z,76.90
2022-08-18T10:36:00.938Z,78.70
2022-08-18T10:38:45.859Z,76.15
2022-08-18T10:41:30.204Z,74.50
2022-08-18T10:44:00.047Z,77.75
2022-08-18T10:46:39.589Z,77.28
2022-08-18T10:49:13.259Z,76.57
2022-08-18T10:52:03.050Z,77.30
2022-08-18T10:57:47.644Z,78.90
2022-08-18T11:00:21.505Z,77.82
2022-08-18T11:03:01.898Z,80.53
2022-08-18T11:05:31.912Z,79.15
2022-08-18T11:08:03.947Z,78.65
2022-08-18T11:11:06.655Z,76.50
2022-08-18T11:14:07.369Z,77.15
2022-08-18T11:16:44.819Z,80.63
2022-08-18T11:19:14.582Z,85.07
2022-08-18T11:21:45.894Z,81.70
2022-08-18T11:24:32.390Z,83.60
2022-08-18T11:27:17.079Z,80.05
2022-08-18T11:29:44.498Z,78.80
2022-08-18T11:32:15.127Z,80.80
2022-08-18T11:34:53.381Z,80.63
2022-08-18T11:37:49.686Z,80.13
2022-08-18T11:40:51.825Z,78.40
2022-08-18T11:43:21.692Z,81.25
2022-08-18T11:45:53.005Z,76.40
2022-08-18T11:48:25.151Z,73.65
2022-08-18T11:50:56.549Z,74.20
2022-08-18T11:53:35.177Z,69.88
2022-08-18T11:56:14.223Z,63.97
2022-08-18T11:58:50.558Z,69.60
2022-08-18T12:01:51.506Z,69.10
2022-08-18T12:04:37.615Z,61.92
2022-08-18T12:07:15.874Z,62.50
2022-08-18T12:10:26.406Z,60.22
2022-08-18T12:12:57.416Z,56.92
2022-08-18T12:15:29.631Z,59.10
2022-08-18T12:18:11.286Z,61.33
2022-08-18T12:20:53.371Z,58.97
2022-08-18T12:23:20.073Z,61.13
2022-08-18T12:25:48.122Z,59.65
2022-08-18T12:28:19.320Z,62.10
2022-08-18T12:30:49.095Z,63.13
2022-08-18T12:38:59.113Z,63.83
2022-08-18T12:41:25.940Z,63.00
2022-08-18T12:43:58.681Z,63.90
2022-08-18T12:46:27.151Z,58.92
2022-08-18T12:48:53.973Z,57.50
2022-08-18T12:54:10.547Z,56.05
2022-08-18T12:56:40.805Z,57.55
2022-08-18T12:59:09.585Z,54.42
2022-08-18T13:01:39.812Z,56.05
2022-08-18T13:04:13.045Z,54.95
2022-08-18T13:06:59.332Z,55.28
2022-08-18T13:09:35.112Z,53.35
2022-08-18T13:12:18.364Z,49.65
2022-08-18T13:14:46.724Z,49.15
2022-08-18T13:17:32.893Z,51.97
2022-08-18T13:20:07.710Z,51.85
2022-08-18T13:22:35.685Z,51.03
2022-08-18T13:25:05.403Z,49.83
2022-08-18T13:27:35.510Z,49.17
2022-08-18T13:30:29.475Z,51.38
2022-08-18T13:32:59.407Z,51.10
2022-08-18T13:35:29.967Z,52.03
2022-08-18T13:40:46.898Z,56.60
2022-08-18T13:43:16.035Z,52.35
2022-08-18T13:45:46.833Z,53.92
2022-08-18T13:48:19.461Z,54.75
2022-08-18T13:50:46.648Z,53.92
2022-08-18T13:53:19.267Z,50.05
2022-08-18T13:55:46.597Z,50.95
2022-08-18T13:58:20.540Z,50.72
2022-08-18T14:00:52.184Z,51.78
2022-08-18T14:03:42.228Z,54.65
2022-08-18T14:06:10.782Z,52.05
2022-08-18T14:08:40.461Z,51.38
2022-08-18T14:11:08.337Z,52.17
2022-08-18T14:13:38.196Z,50.80
2022-08-18T14:16:18.597Z,51.33
2022-08-18T14:19:09.378Z,51.15
2022-08-18T14:22:07.448Z,49.35
2022-08-18T14:24:58.996Z,48.50
2022-08-18T14:27:36.779Z,50.00
2022-08-18T14:30:09.763Z,46.33
2022-08-18T14:32:48.675Z,45.67
2022-08-18T14:35:32.992Z,45.22
2022-08-18T14:38:08.029Z,47.03
2022-08-18T14:40:38.714Z,46.03
2022-08-18T14:43:09.445Z,46.30
2022-08-18T14:45:36.439Z,48.55
2022-08-18T14:48:07.309Z,47.60
2022-08-18T14:50:36.957Z,48.22
2022-08-18T14:53:04.874Z,48.42
2022-08-18T14:55:32.173Z,48.17
2022-08-18T14:57:59.600Z,48.40
2022-08-18T15:00:27.507Z,47.88
2022-08-18T15:02:54.791Z,47.95
2022-08-18T15:05:24.618Z,47.70
2022-08-18T15:07:52.795Z,48.50
2022-08-18T15:10:23.551Z,46.15
2022-08-18T15:15:22.661Z,45.45
2022-08-18T15:17:53.031Z,45.85
2022-08-18T15:20:24.024Z,44.83
2022-08-18T15:23:22.773Z,44.65
2022-08-18T15:25:54.957Z,45.05
2022-08-18T15:28:27.413Z,46.03
2022-08-18T15:33:41.915Z,45.88
2022-08-18T15:36:10.216Z,43.38
2022-08-18T15:38:37.218Z,44.75
2022-08-18T15:41:06.364Z,44.63
2022-08-18T15:43:45.995Z,44.92
2022-08-18T15:46:16.753Z,43.25
2022-08-18T15:48:43.892Z,45.95
2022-08-18T15:51:12.196Z,45.35
2022-08-18T15:53:44.836Z,44.63
2022-08-18T15:56:25.979Z,43.72
2022-08-18T15:58:52.991Z,43.50
2022-08-18T16:01:32.164Z,45.13
2022-08-18T16:04:00.983Z,44.72
2022-08-18T16:06:32.424Z,44.67
2022-08-18T16:09:01.950Z,44.25
2022-08-18T16:11:30.019Z,43.10
2022-08-18T16:14:00.767Z,45.15
2022-08-18T16:16:35.734Z,44.08
2022-08-18T16:19:05.418Z,45.50
2022-08-18T16:21:32.201Z,45.00
2022-08-18T16:23:58.956Z,45.25
2022-08-18T16:26:25.830Z,43.50
2022-08-18T16:28:53.176Z,42.83
2022-08-18T16:31:24.986Z,43.42
2022-08-18T16:33:53.741Z,42.45
2022-08-18T16:36:21.793Z,42.67
2022-08-18T16:38:48.845Z,43.83
2022-08-18T16:41:21.053Z,43.80
2022-08-18T16:43:48.144Z,45.38
2022-08-18T16:46:23.205Z,44.20
2022-08-18T16:48:50.316Z,45.38
2022-08-18T16:51:21.732Z,42.17
2022-08-18T16:53:52.013Z,42.53
2022-08-18T16:56:22.696Z,43.72
2022-08-18T16:59:08.599Z,42.50
2022-08-18T17:01:54.403Z,41.85
2022-08-18T17:04:28.673Z,42.95
2022-08-18T17:06:56.552Z,42.38
2022-08-18T17:09:24.351Z,42.20
2022-08-18T17:11:52.442Z,41.00
2022-08-18T17:14:21.836Z,42.53
2022-08-18T17:16:53.650Z,41.42
2022-08-18T17:19:24.814Z,42.28
2022-08-18T17:21:51.614Z,42.50
2022-08-18T17:24:31.314Z,39.90
2022-08-18T17:27:26.676Z,41.38
2022-08-18T17:30:04.494Z,41.17
2022-08-18T17:32:49.384Z,41.72
2022-08-18T17:35:28.812Z,41.17
2022-08-18T17:38:33.908Z,41.35
2022-08-18T17:41:02.796Z,41.22
2022-08-18T17:43:35.484Z,42.25
2022-08-18T17:46:08.723Z,41.63
2022-08-18T17:48:52.381Z,41.45
2022-08-18T17:51:44.381Z,41.22
2022-08-18T17:54:11.304Z,42.08
2022-08-18T17:56:53.000Z,41.13
2022-08-18T17:59:45.299Z,39.67
2022-08-18T18:02:29.509Z,40.53
2022-08-18T18:05:07.118Z,40.30
2022-08-18T18:07:52.319Z,40.83
2022-08-18T18:10:28.133Z,39.83
2022-08-18T18:13:06.424Z,40.72
2022-08-18T18:15:33.740Z,39.67
2022-08-18T18:18:36.768Z,39.92
2022-08-18T18:21:14.088Z,38.97
2022-08-18T18:23:47.063Z,38.95
2022-08-18T18:26:28.870Z,39.90
2022-08-18T18:29:29.094Z,38.42
2022-08-18T18:32:06.815Z,40.13
2022-08-18T18:34:42.823Z,37.78
2022-08-18T18:37:26.156Z,39.15
2022-08-18T18:39:58.895Z,38.67
2022-08-18T18:42:29.232Z,39.33
2022-08-18T18:45:01.113Z,36.00
2022-08-18T18:47:55.793Z,35.85
2022-08-18T18:50:40.370Z,37.53
2022-08-18T18:53:39.863Z,38.17
2022-08-18T18:56:24.362Z,37.67
2022-08-18T18:59:06.448Z,38.60
2022-08-18T19:01:36.263Z,38.70
2022-08-18T19:04:09.750Z,39.60
2022-08-18T19:07:01.264Z,37.80
2022-08-18T19:09:39.035Z,38.05
2022-08-18T19:12:18.741Z,38.05
2022-08-18T19:14:59.755Z,42.10
2022-08-18T19:17:46.559Z,38.38
2022-08-18T19:20:18.059Z,38.83
2022-08-18T19:22:54.363Z,38.63
2022-08-18T19:25:26.354Z,37.35
2022-08-18T19:28:06.835Z,38.92
2022-08-18T19:30:36.773Z,36.33
2022-08-18T19:33:06.556Z,36.10
2022-08-18T19:36:09.957Z,37.58
2022-08-18T19:38:52.224Z,38.25
2022-08-18T19:41:43.785Z,37.35
2022-08-18T19:44:25.677Z,37.78
2022-08-18T19:46:57.481Z,36.47
2022-08-18T19:49:42.630Z,37.95
2022-08-18T19:52:46.324Z,35.88
2022-08-18T19:55:33.320Z,36.72
2022-08-18T19:58:18.634Z,36.88
2022-08-18T20:03:51.965Z,35.13
2022-08-18T20:06:34.622Z,34.42
2022-08-18T20:09:23.619Z,33.88
2022-08-18T20:12:01.621Z,32.97
2022-08-18T20:14:32.137Z,34.30
2022-08-18T20:17:12.668Z,34.63
2022-08-18T20:19:47.210Z,35.05
2022-08-18T20:22:22.077Z,34.53
2022-08-18T20:25:05.942Z,33.92
2022-08-18T20:27:36.443Z,34.65
2022-08-18T20:30:29.316Z,35.72
2022-08-18T20:33:07.919Z,33.75
2022-08-18T20:35:41.686Z,32.20
2022-08-18T20:38:34.600Z,32.25
2022-08-18T20:41:28.623Z,32.40
2022-08-18T20:44:28.656Z,34.05
2022-08-18T20:47:27.848Z,31.38
2022-08-18T20:50:10.484Z,30.33
2022-08-18T20:53:00.449Z,32.95
2022-08-18T20:55:30.792Z,29.92
2022-08-18T20:58:05.249Z,32.63
2022-08-18T21:00:36.557Z,31.30
2022-08-18T21:03:08.466Z,31.45
2022-08-18T21:05:38.074Z,31.05
2022-08-18T21:08:16.758Z,31.38
2022-08-18T21:10:50.951Z,32.42
2022-08-18T21:13:40.546Z,33.10
2022-08-18T21:16:09.575Z,30.58
2022-08-18T21:18:37.069Z,29.90
2022-08-18T21:21:12.140Z,30.83
2022-08-18T21:23:41.203Z,30.52
2022-08-18T21:26:14.191Z,30.48
2022-08-18T21:28:44.944Z,30.85
2022-08-18T21:31:44.305Z,31.63
2022-08-18T21:34:18.442Z,29.75
2022-08-18T21:36:53.447Z,29.70
2022-08-18T21:41:51.338Z,27.35
2022-08-18T21:44:21.788Z,26.13
2022-08-18T21:46:49.851Z,25.38
2022-08-18T21:49:27.593Z,25.52
2022-08-18T21:51:54.649Z,24.55
2022-08-18T21:54:29.213Z,25.38
2022-08-18T21:57:19.466Z,25.15
2022-08-18T22:00:20.355Z,24.73
2022-08-18T22:02:51.874Z,25.08
2022-08-18T22:05:58.438Z,24.65
2022-08-18T22:08:22.916Z,26.02
2022-08-18T22:11:59.612Z,26.02
2022-08-18T22:14:54.606Z,25.23
2022-08-18T22:17:42.952Z,25.15
2022-08-18T22:20:34.447Z,24.90
2022-08-18T22:23:31.954Z,26.42
2022-08-18T22:26:32.131Z,25.45
2022-08-18T22:29:31.251Z,25.80
2022-08-18T22:31:58.980Z,26.63
2022-08-18T22:34:29.124Z,27.38
2022-08-18T22:37:13.003Z,27.50
2022-08-18T22:39:55.910Z,26.95
2022-08-18T22:42:26.174Z,26.17
2022-08-18T22:44:53.916Z,27.15
2022-08-18T22:47:20.885Z,26.70
2022-08-18T22:49:47.963Z,26.45
2022-08-18T22:52:29.830Z,26.65
2022-08-18T22:55:02.765Z,26.75
2022-08-18T22:57:36.378Z,27.20
2022-08-18T23:00:14.809Z,27.45
2022-08-18T23:02:41.899Z,25.55
2022-08-18T23:05:09.403Z,26.50
2022-08-18T23:07:36.379Z,26.05
2022-08-18T23:10:08.201Z,26.70
2022-08-18T23:12:44.464Z,26.75
2022-08-18T23:15:11.658Z,27.38
2022-08-18T23:17:40.488Z,27.55
2022-08-18T23:20:12.103Z,27.77
2022-08-18T23:22:45.275Z,26.15
2022-08-18T23:25:13.182Z,26.42
2022-08-18T23:27:40.842Z,27.80
2022-08-18T23:30:08.229Z,27.00
2022-08-18T23:32:34.884Z,26.35
2022-08-18T23:35:01.799Z,25.77
2022-08-18T23:37:28.724Z,27.23
2022-08-18T23:39:55.811Z,27.23
2022-08-18T23:42:23.124Z,28.15
2022-08-18T23:44:50.256Z,27.20
2022-08-18T23:47:20.560Z,27.17
2022-08-18T23:49:47.319Z,27.50
2022-08-18T23:52:13.990Z,27.75
2022-08-18T23:54:41.154Z,27.27
2022-08-18T23:57:07.849Z,27.80
2022-08-18T23:59:34.549Z,28.23
